sensor_id;sensor_type;location;lat;lon;timestamp;P1;durP1;ratioP1;P2;durP2;ratioP2
27722;SDS011;15123;-37.794;175.246;2023-04-24T00:01:02;6.45;;;1.25;;
27722;SDS011;15123;-37.794;175.246;2023-04-24T00:03:33;4.55;;;0.85;;
27722;SDS011;15123;-37.794;175.246;2023-04-24T00:06:05;5.80;;;0.85;;
27722;SDS011;15123;-37.794;175.246;2023-04-24T00:08:38;5.20;;;0.80;;
27722;SDS011;15123;-37.794;175.246;2023-04-24T00:11:09;7.63;;;1.00;;
27722;SDS011;15123;-37.794;175.246;2023-04-24T00:13:41;4.35;;;0.73;;
27722;SDS011;15123;-37.794;175.246;2023-04-24T00:16:12;7.85;;;1.20;;
27722;SDS011;15123;-37.794;175.246;2023-04-24T00:18:43;5.75;;;0.80;;
27722;SDS011;15123;-37.794;175.246;2023-04-24T00:23:49;4.80;;;0.90;;
27722;SDS011;15123;-37.794;175.246;2023-04-24T00:28:52;3.65;;;0.70;;
27722;SDS011;15123;-37.794;175.246;2023-04-24T00:31:23;5.65;;;0.80;;
27722;SDS011;15123;-37.794;175.246;2023-04-24T00:33:54;6.53;;;0.90;;
27722;SDS011;15123;-37.794;175.246;2023-04-24T00:38:57;5.78;;;0.80;;
27722;SDS011;15123;-37.794;175.246;2023-04-24T00:41:28;3.42;;;0.60;;
27722;SDS011;15123;-37.794;175.246;2023-04-24T00:46:31;4.25;;;0.70;;
27722;SDS011;15123;-37.794;175.246;2023-04-24T00:49:03;5.03;;;0.60;;
27722;SDS011;15123;-37.794;175.246;2023-04-24T00:51:39;4.72;;;0.70;;
27722;SDS011;15123;-37.794;175.246;2023-04-24T00:54:15;4.68;;;0.70;;
27722;SDS011;15123;-37.794;175.246;2023-04-24T00:56:48;6.85;;;0.80;;
27722;SDS011;15123;-37.794;175.246;2023-04-24T00:59:21;3.10;;;0.52;;
27722;SDS011;15123;-37.794;175.246;2023-04-24T01:01:53;5.50;;;0.70;;
27722;SDS011;15123;-37.794;175.246;2023-04-24T01:04:25;5.78;;;0.70;;
27722;SDS011;15123;-37.794;175.246;2023-04-24T01:06:57;4.72;;;0.65;;
27722;SDS011;15123;-37.794;175.246;2023-04-24T01:09:28;2.92;;;0.50;;
27722;SDS011;15123;-37.794;175.246;2023-04-24T01:12:00;4.95;;;0.70;;
27722;SDS011;15123;-37.794;175.246;2023-04-24T01:14:32;3.08;;;0.68;;
27722;SDS011;15123;-37.794;175.246;2023-04-24T01:17:04;4.82;;;0.80;;
27722;SDS011;15123;-37.794;175.246;2023-04-24T01:19:36;4.70;;;0.70;;
27722;SDS011;15123;-37.794;175.246;2023-04-24T01:24:41;3.70;;;0.70;;
27722;SDS011;15123;-37.794;175.246;2023-04-24T01:27:13;5.05;;;0.70;;
27722;SDS011;15123;-37.794;175.246;2023-04-24T01:32:17;3.45;;;0.63;;
27722;SDS011;15123;-37.794;175.246;2023-04-24T01:34:49;3.78;;;0.70;;
27722;SDS011;15123;-37.794;175.246;2023-04-24T01:37:21;3.42;;;0.70;;
27722;SDS011;15123;-37.794;175.246;2023-04-24T01:39:53;3.38;;;0.60;;
27722;SDS011;15123;-37.794;175.246;2023-04-24T01:42:26;4.13;;;0.60;;
27722;SDS011;15123;-37.794;175.246;2023-04-24T01:47:31;5.32;;;1.13;;
27722;SDS011;15123;-37.794;175.246;2023-04-24T01:50:03;3.78;;;0.60;;
27722;SDS011;15123;-37.794;175.246;2023-04-24T01:52:35;4.78;;;0.70;;
27722;SDS011;15123;-37.794;175.246;2023-04-24T01:57:38;4.70;;;0.70;;
27722;SDS011;15123;-37.794;175.246;2023-04-24T02:02:42;3.30;;;0.68;;
27722;SDS011;15123;-37.794;175.246;2023-04-24T02:05:16;5.93;;;0.90;;
27722;SDS011;15123;-37.794;175.246;2023-04-24T02:07:47;4.05;;;0.70;;
27722;SDS011;15123;-37.794;175.246;2023-04-24T02:10:19;7.53;;;1.20;;
27722;SDS011;15123;-37.794;175.246;2023-04-24T02:12:52;5.72;;;0.80;;
27722;SDS011;15123;-37.794;175.246;2023-04-24T02:15:25;3.38;;;0.60;;
27722;SDS011;15123;-37.794;175.246;2023-04-24T02:17:56;4.80;;;0.98;;
27722;SDS011;15123;-37.794;175.246;2023-04-24T02:20:29;5.50;;;0.90;;
27722;SDS011;15123;-37.794;175.246;2023-04-24T02:23:04;5.22;;;0.95;;
27722;SDS011;15123;-37.794;175.246;2023-04-24T02:25:35;7.28;;;1.23;;
27722;SDS011;15123;-37.794;175.246;2023-04-24T02:28:08;6.50;;;1.20;;
27722;SDS011;15123;-37.794;175.246;2023-04-24T02:30:40;6.18;;;0.80;;
27722;SDS011;15123;-37.794;175.246;2023-04-24T02:33:11;5.57;;;0.80;;
27722;SDS011;15123;-37.794;175.246;2023-04-24T02:35:43;6.15;;;0.80;;
27722;SDS011;15123;-37.794;175.246;2023-04-24T02:38:15;6.30;;;0.88;;
27722;SDS011;15123;-37.794;175.246;2023-04-24T02:40:46;5.10;;;1.20;;
27722;SDS011;15123;-37.794;175.246;2023-04-24T02:43:17;6.63;;;0.80;;
27722;SDS011;15123;-37.794;175.246;2023-04-24T02:45:49;6.47;;;0.90;;
27722;SDS011;15123;-37.794;175.246;2023-04-24T02:48:20;5.65;;;0.70;;
27722;SDS011;15123;-37.794;175.246;2023-04-24T02:50:52;4.72;;;0.90;;
27722;SDS011;15123;-37.794;175.246;2023-04-24T02:53:23;6.63;;;0.90;;
27722;SDS011;15123;-37.794;175.246;2023-04-24T02:55:55;5.95;;;0.98;;
27722;SDS011;15123;-37.794;175.246;2023-04-24T02:58:26;6.70;;;0.85;;
27722;SDS011;15123;-37.794;175.246;2023-04-24T03:00:58;5.50;;;0.80;;
27722;SDS011;15123;-37.794;175.246;2023-04-24T03:03:31;4.80;;;0.90;;
27722;SDS011;15123;-37.794;175.246;2023-04-24T03:06:03;4.30;;;0.80;;
27722;SDS011;15123;-37.794;175.246;2023-04-24T03:08:35;6.35;;;0.90;;
27722;SDS011;15123;-37.794;175.246;2023-04-24T03:11:07;7.57;;;0.90;;
27722;SDS011;15123;-37.794;175.246;2023-04-24T03:13:38;6.22;;;1.15;;
27722;SDS011;15123;-37.794;175.246;2023-04-24T03:16:09;5.78;;;0.93;;
27722;SDS011;15123;-37.794;175.246;2023-04-24T03:18:41;6.13;;;0.90;;
27722;SDS011;15123;-37.794;175.246;2023-04-24T03:21:13;5.78;;;0.88;;
27722;SDS011;15123;-37.794;175.246;2023-04-24T03:26:15;6.47;;;1.10;;
27722;SDS011;15123;-37.794;175.246;2023-04-24T03:29:02;5.22;;;0.70;;
27722;SDS011;15123;-37.794;175.246;2023-04-24T03:31:35;5.75;;;0.80;;
27722;SDS011;15123;-37.794;175.246;2023-04-24T03:34:07;7.22;;;1.20;;
27722;SDS011;15123;-37.794;175.246;2023-04-24T03:36:38;6.78;;;1.02;;
27722;SDS011;15123;-37.794;175.246;2023-04-24T03:39:11;5.63;;;0.85;;
27722;SDS011;15123;-37.794;175.246;2023-04-24T03:41:50;6.75;;;0.93;;
27722;SDS011;15123;-37.794;175.246;2023-04-24T03:44:26;5.57;;;0.88;;
27722;SDS011;15123;-37.794;175.246;2023-04-24T03:46:58;6.18;;;0.93;;
27722;SDS011;15123;-37.794;175.246;2023-04-24T03:49:30;8.45;;;0.80;;
27722;SDS011;15123;-37.794;175.246;2023-04-24T03:52:04;6.85;;;1.00;;
27722;SDS011;15123;-37.794;175.246;2023-04-24T03:54:36;6.10;;;0.90;;
27722;SDS011;15123;-37.794;175.246;2023-04-24T03:57:08;5.80;;;0.98;;
27722;SDS011;15123;-37.794;175.246;2023-04-24T03:59:51;3.55;;;0.68;;
27722;SDS011;15123;-37.794;175.246;2023-04-24T04:02:25;4.43;;;0.82;;
27722;SDS011;15123;-37.794;175.246;2023-04-24T04:04:57;5.07;;;0.80;;
27722;SDS011;15123;-37.794;175.246;2023-04-24T04:07:29;7.47;;;1.10;;
27722;SDS011;15123;-37.794;175.246;2023-04-24T04:10:01;6.85;;;1.10;;
27722;SDS011;15123;-37.794;175.246;2023-04-24T04:12:33;5.95;;;0.93;;
27722;SDS011;15123;-37.794;175.246;2023-04-24T04:15:04;6.57;;;1.05;;
27722;SDS011;15123;-37.794;175.246;2023-04-24T04:17:36;5.15;;;0.95;;
27722;SDS011;15123;-37.794;175.246;2023-04-24T04:20:08;5.60;;;1.00;;
27722;SDS011;15123;-37.794;175.246;2023-04-24T04:22:41;5.63;;;0.85;;
27722;SDS011;15123;-37.794;175.246;2023-04-24T04:25:17;5.80;;;0.85;;
27722;SDS011;15123;-37.794;175.246;2023-04-24T04:27:49;3.90;;;0.55;;
27722;SDS011;15123;-37.794;175.246;2023-04-24T04:30:20;5.60;;;0.88;;
27722;SDS011;15123;-37.794;175.246;2023-04-24T04:33:01;8.13;;;1.00;;
27722;SDS011;15123;-37.794;175.246;2023-04-24T04:35:34;6.45;;;1.00;;
27722;SDS011;15123;-37.794;175.246;2023-04-24T04:38:06;6.20;;;1.10;;
27722;SDS011;15123;-37.794;175.246;2023-04-24T04:40:45;12.55;;;4.30;;
27722;SDS011;15123;-37.794;175.246;2023-04-24T04:43:19;4.47;;;0.90;;
27722;SDS011;15123;-37.794;175.246;2023-04-24T04:45:52;7.50;;;1.00;;
27722;SDS011;15123;-37.794;175.246;2023-04-24T04:48:39;6.07;;;0.80;;
27722;SDS011;15123;-37.794;175.246;2023-04-24T04:51:10;6.53;;;1.10;;
27722;SDS011;15123;-37.794;175.246;2023-04-24T04:53:41;6.93;;;1.10;;
27722;SDS011;15123;-37.794;175.246;2023-04-24T04:56:12;6.78;;;1.10;;
27722;SDS011;15123;-37.794;175.246;2023-04-24T04:58:46;5.93;;;0.88;;
27722;SDS011;15123;-37.794;175.246;2023-04-24T05:01:18;6.47;;;1.00;;
27722;SDS011;15123;-37.794;175.246;2023-04-24T05:03:50;7.32;;;1.20;;
27722;SDS011;15123;-37.794;175.246;2023-04-24T05:06:22;6.50;;;1.05;;
27722;SDS011;15123;-37.794;175.246;2023-04-24T05:08:55;6.65;;;1.10;;
27722;SDS011;15123;-37.794;175.246;2023-04-24T05:11:39;8.65;;;1.30;;
27722;SDS011;15123;-37.794;175.246;2023-04-24T05:14:11;9.45;;;1.50;;
27722;SDS011;15123;-37.794;175.246;2023-04-24T05:16:46;8.40;;;1.67;;
27722;SDS011;15123;-37.794;175.246;2023-04-24T05:19:20;9.82;;;1.58;;
27722;SDS011;15123;-37.794;175.246;2023-04-24T05:21:51;7.50;;;1.60;;
27722;SDS011;15123;-37.794;175.246;2023-04-24T05:24:23;8.07;;;1.30;;
27722;SDS011;15123;-37.794;175.246;2023-04-24T05:27:20;8.02;;;1.10;;
27722;SDS011;15123;-37.794;175.246;2023-04-24T05:29:51;7.53;;;1.25;;
27722;SDS011;15123;-37.794;175.246;2023-04-24T05:32:22;6.43;;;1.10;;
27722;SDS011;15123;-37.794;175.246;2023-04-24T05:34:54;6.78;;;1.00;;
27722;SDS011;15123;-37.794;175.246;2023-04-24T05:39:57;12.43;;;2.97;;
27722;SDS011;15123;-37.794;175.246;2023-04-24T05:42:29;9.48;;;2.17;;
27722;SDS011;15123;-37.794;175.246;2023-04-24T05:45:04;8.15;;;1.83;;
27722;SDS011;15123;-37.794;175.246;2023-04-24T05:47:36;8.20;;;2.33;;
27722;SDS011;15123;-37.794;175.246;2023-04-24T05:50:07;10.38;;;4.65;;
27722;SDS011;15123;-37.794;175.246;2023-04-24T05:52:39;13.07;;;5.97;;
27722;SDS011;15123;-37.794;175.246;2023-04-24T05:55:22;11.35;;;7.97;;
27722;SDS011;15123;-37.794;175.246;2023-04-24T05:57:55;10.38;;;3.58;;
27722;SDS011;15123;-37.794;175.246;2023-04-24T06:00:28;8.63;;;1.80;;
27722;SDS011;15123;-37.794;175.246;2023-04-24T06:03:05;9.40;;;2.78;;
27722;SDS011;15123;-37.794;175.246;2023-04-24T06:08:08;7.63;;;3.03;;
27722;SDS011;15123;-37.794;175.246;2023-04-24T06:10:43;8.68;;;2.08;;
27722;SDS011;15123;-37.794;175.246;2023-04-24T06:13:18;10.15;;;3.75;;
27722;SDS011;15123;-37.794;175.246;2023-04-24T06:16:13;11.32;;;4.63;;
27722;SDS011;15123;-37.794;175.246;2023-04-24T06:18:51;9.23;;;4.60;;
27722;SDS011;15123;-37.794;175.246;2023-04-24T06:21:22;12.85;;;7.05;;
27722;SDS011;15123;-37.794;175.246;2023-04-24T06:23:55;8.75;;;1.70;;
27722;SDS011;15123;-37.794;175.246;2023-04-24T06:26:27;73.40;;;45.53;;
27722;SDS011;15123;-37.794;175.246;2023-04-24T06:29:00;34.00;;;22.23;;
27722;SDS011;15123;-37.794;175.246;2023-04-24T06:31:31;31.38;;;23.42;;
27722;SDS011;15123;-37.794;175.246;2023-04-24T06:34:07;27.33;;;21.23;;
27722;SDS011;15123;-37.794;175.246;2023-04-24T06:36:40;13.50;;;7.47;;
27722;SDS011;15123;-37.794;175.246;2023-04-24T06:39:13;9.20;;;1.95;;
27722;SDS011;15123;-37.794;175.246;2023-04-24T06:41:44;10.43;;;2.45;;
27722;SDS011;15123;-37.794;175.246;2023-04-24T06:44:20;10.63;;;5.00;;
27722;SDS011;15123;-37.794;175.246;2023-04-24T06:46:52;14.27;;;5.60;;
27722;SDS011;15123;-37.794;175.246;2023-04-24T06:49:23;14.75;;;11.43;;
27722;SDS011;15123;-37.794;175.246;2023-04-24T06:51:55;9.48;;;2.67;;
27722;SDS011;15123;-37.794;175.246;2023-04-24T06:54:26;8.00;;;1.50;;
27722;SDS011;15123;-37.794;175.246;2023-04-24T06:56:57;7.72;;;1.40;;
27722;SDS011;15123;-37.794;175.246;2023-04-24T06:59:30;7.38;;;1.25;;
27722;SDS011;15123;-37.794;175.246;2023-04-24T07:02:02;7.67;;;1.27;;
27722;SDS011;15123;-37.794;175.246;2023-04-24T07:04:34;10.15;;;1.40;;
27722;SDS011;15123;-37.794;175.246;2023-04-24T07:07:06;7.45;;;1.20;;
27722;SDS011;15123;-37.794;175.246;2023-04-24T07:09:40;9.65;;;1.60;;
27722;SDS011;15123;-37.794;175.246;2023-04-24T07:12:12;6.28;;;0.98;;
27722;SDS011;15123;-37.794;175.246;2023-04-24T07:14:43;6.75;;;1.35;;
27722;SDS011;15123;-37.794;175.246;2023-04-24T07:17:15;9.18;;;2.70;;
27722;SDS011;15123;-37.794;175.246;2023-04-24T07:19:47;7.82;;;1.90;;
27722;SDS011;15123;-37.794;175.246;2023-04-24T07:22:18;6.80;;;1.50;;
27722;SDS011;15123;-37.794;175.246;2023-04-24T07:24:50;10.52;;;1.40;;
27722;SDS011;15123;-37.794;175.246;2023-04-24T07:27:22;11.90;;;2.25;;
27722;SDS011;15123;-37.794;175.246;2023-04-24T07:29:53;10.07;;;1.40;;
27722;SDS011;15123;-37.794;175.246;2023-04-24T07:32:24;7.73;;;1.30;;
27722;SDS011;15123;-37.794;175.246;2023-04-24T07:34:56;10.65;;;2.53;;
27722;SDS011;15123;-37.794;175.246;2023-04-24T07:37:29;7.75;;;2.15;;
27722;SDS011;15123;-37.794;175.246;2023-04-24T07:40:00;6.88;;;1.73;;
27722;SDS011;15123;-37.794;175.246;2023-04-24T07:42:32;7.28;;;1.40;;
27722;SDS011;15123;-37.794;175.246;2023-04-24T07:45:04;6.40;;;1.35;;
27722;SDS011;15123;-37.794;175.246;2023-04-24T07:47:36;20.40;;;9.35;;
27722;SDS011;15123;-37.794;175.246;2023-04-24T07:50:09;8.50;;;4.80;;
27722;SDS011;15123;-37.794;175.246;2023-04-24T07:52:41;9.27;;;2.35;;
27722;SDS011;15123;-37.794;175.246;2023-04-24T07:55:13;8.63;;;1.60;;
27722;SDS011;15123;-37.794;175.246;2023-04-24T07:57:46;8.13;;;2.42;;
27722;SDS011;15123;-37.794;175.246;2023-04-24T08:00:17;11.30;;;1.98;;
27722;SDS011;15123;-37.794;175.246;2023-04-24T08:02:49;7.00;;;1.35;;
27722;SDS011;15123;-37.794;175.246;2023-04-24T08:05:21;7.32;;;1.30;;
27722;SDS011;15123;-37.794;175.246;2023-04-24T08:07:55;8.05;;;1.40;;
27722;SDS011;15123;-37.794;175.246;2023-04-24T08:10:28;9.23;;;1.40;;
27722;SDS011;15123;-37.794;175.246;2023-04-24T08:12:59;8.93;;;1.27;;
27722;SDS011;15123;-37.794;175.246;2023-04-24T08:15:30;7.50;;;1.48;;
27722;SDS011;15123;-37.794;175.246;2023-04-24T08:18:02;7.63;;;1.65;;
27722;SDS011;15123;-37.794;175.246;2023-04-24T08:20:33;7.90;;;2.10;;
27722;SDS011;15123;-37.794;175.246;2023-04-24T08:23:06;11.07;;;2.40;;
27722;SDS011;15123;-37.794;175.246;2023-04-24T08:25:38;8.90;;;1.77;;
27722;SDS011;15123;-37.794;175.246;2023-04-24T08:28:09;9.77;;;1.70;;
27722;SDS011;15123;-37.794;175.246;2023-04-24T08:30:43;9.23;;;1.42;;
27722;SDS011;15123;-37.794;175.246;2023-04-24T08:33:15;8.02;;;2.42;;
27722;SDS011;15123;-37.794;175.246;2023-04-24T08:35:46;11.93;;;1.50;;
27722;SDS011;15123;-37.794;175.246;2023-04-24T08:38:18;9.32;;;1.30;;
27722;SDS011;15123;-37.794;175.246;2023-04-24T08:40:49;6.40;;;1.00;;
27722;SDS011;15123;-37.794;175.246;2023-04-24T08:43:21;8.98;;;1.00;;
27722;SDS011;15123;-37.794;175.246;2023-04-24T08:45:55;9.18;;;1.13;;
27722;SDS011;15123;-37.794;175.246;2023-04-24T08:48:27;8.13;;;1.55;;
27722;SDS011;15123;-37.794;175.246;2023-04-24T08:50:59;8.45;;;1.20;;
27722;SDS011;15123;-37.794;175.246;2023-04-24T08:53:32;8.43;;;1.20;;
27722;SDS011;15123;-37.794;175.246;2023-04-24T08:56:04;7.60;;;1.00;;
27722;SDS011;15123;-37.794;175.246;2023-04-24T08:58:35;6.60;;;0.95;;
27722;SDS011;15123;-37.794;175.246;2023-04-24T09:03:37;6.70;;;1.20;;
27722;SDS011;15123;-37.794;175.246;2023-04-24T09:06:10;7.72;;;1.00;;
27722;SDS011;15123;-37.794;175.246;2023-04-24T09:08:41;7.00;;;1.30;;
27722;SDS011;15123;-37.794;175.246;2023-04-24T09:11:14;9.20;;;1.08;;
27722;SDS011;15123;-37.794;175.246;2023-04-24T09:13:45;7.68;;;0.95;;
27722;SDS011;15123;-37.794;175.246;2023-04-24T09:16:16;6.50;;;0.95;;
27722;SDS011;15123;-37.794;175.246;2023-04-24T09:18:49;6.57;;;0.98;;
27722;SDS011;15123;-37.794;175.246;2023-04-24T09:21:21;8.98;;;1.30;;
27722;SDS011;15123;-37.794;175.246;2023-04-24T09:24:00;6.32;;;0.80;;
27722;SDS011;15123;-37.794;175.246;2023-04-24T09:26:36;6.68;;;1.45;;
27722;SDS011;15123;-37.794;175.246;2023-04-24T09:29:07;5.90;;;1.10;;
27722;SDS011;15123;-37.794;175.246;2023-04-24T09:31:45;7.85;;;1.20;;
27722;SDS011;15123;-37.794;175.246;2023-04-24T09:34:20;4.72;;;0.80;;
27722;SDS011;15123;-37.794;175.246;2023-04-24T09:36:53;5.60;;;0.90;;
27722;SDS011;15123;-37.794;175.246;2023-04-24T09:39:25;8.15;;;1.00;;
27722;SDS011;15123;-37.794;175.246;2023-04-24T09:41:57;7.35;;;1.10;;
27722;SDS011;15123;-37.794;175.246;2023-04-24T09:44:29;7.75;;;1.15;;
27722;SDS011;15123;-37.794;175.246;2023-04-24T09:47:02;6.80;;;1.30;;
27722;SDS011;15123;-37.794;175.246;2023-04-24T09:49:33;7.63;;;0.90;;
27722;SDS011;15123;-37.794;175.246;2023-04-24T09:52:09;7.13;;;1.10;;
27722;SDS011;15123;-37.794;175.246;2023-04-24T09:54:41;8.80;;;1.20;;
27722;SDS011;15123;-37.794;175.246;2023-04-24T09:57:14;8.65;;;1.25;;
27722;SDS011;15123;-37.794;175.246;2023-04-24T09:59:48;9.15;;;1.60;;
27722;SDS011;15123;-37.794;175.246;2023-04-24T10:02:19;7.43;;;1.48;;
27722;SDS011;15123;-37.794;175.246;2023-04-24T10:04:56;7.35;;;1.30;;
27722;SDS011;15123;-37.794;175.246;2023-04-24T10:07:32;7.63;;;1.17;;
27722;SDS011;15123;-37.794;175.246;2023-04-24T10:10:04;7.88;;;2.13;;
27722;SDS011;15123;-37.794;175.246;2023-04-24T10:12:37;9.05;;;2.85;;
27722;SDS011;15123;-37.794;175.246;2023-04-24T10:15:09;8.70;;;1.92;;
27722;SDS011;15123;-37.794;175.246;2023-04-24T10:17:43;10.43;;;2.70;;
27722;SDS011;15123;-37.794;175.246;2023-04-24T10:20:25;9.82;;;2.70;;
27722;SDS011;15123;-37.794;175.246;2023-04-24T10:22:59;15.48;;;5.85;;
27722;SDS011;15123;-37.794;175.246;2023-04-24T10:25:33;24.00;;;8.98;;
27722;SDS011;15123;-37.794;175.246;2023-04-24T10:28:06;17.25;;;6.93;;
27722;SDS011;15123;-37.794;175.246;2023-04-24T10:30:38;10.63;;;3.90;;
27722;SDS011;15123;-37.794;175.246;2023-04-24T10:33:10;11.25;;;2.88;;
27722;SDS011;15123;-37.794;175.246;2023-04-24T10:35:45;8.90;;;1.90;;
27722;SDS011;15123;-37.794;175.246;2023-04-24T10:38:21;9.73;;;2.03;;
27722;SDS011;15123;-37.794;175.246;2023-04-24T10:41:06;9.13;;;1.80;;
27722;SDS011;15123;-37.794;175.246;2023-04-24T10:43:39;7.28;;;1.52;;
27722;SDS011;15123;-37.794;175.246;2023-04-24T10:48:51;9.32;;;2.40;;
27722;SDS011;15123;-37.794;175.246;2023-04-24T10:51:42;10.27;;;2.75;;
27722;SDS011;15123;-37.794;175.246;2023-04-24T10:54:41;7.00;;;1.60;;
27722;SDS011;15123;-37.794;175.246;2023-04-24T11:00:09;7.68;;;1.10;;
27722;SDS011;15123;-37.794;175.246;2023-04-24T11:02:45;6.90;;;1.30;;
27722;SDS011;15123;-37.794;175.246;2023-04-24T11:05:35;8.13;;;1.10;;
27722;SDS011;15123;-37.794;175.246;2023-04-24T11:08:30;9.05;;;1.38;;
27722;SDS011;15123;-37.794;175.246;2023-04-24T11:11:15;8.77;;;1.35;;
27722;SDS011;15123;-37.794;175.246;2023-04-24T11:16:34;12.10;;;2.75;;
27722;SDS011;15123;-37.794;175.246;2023-04-24T11:19:27;8.60;;;2.10;;
27722;SDS011;15123;-37.794;175.246;2023-04-24T11:27:23;7.72;;;1.65;;
27722;SDS011;15123;-37.794;175.246;2023-04-24T11:32:36;11.43;;;2.40;;
27722;SDS011;15123;-37.794;175.246;2023-04-24T11:35:15;9.52;;;2.25;;
27722;SDS011;15123;-37.794;175.246;2023-04-24T11:37:58;8.40;;;2.15;;
27722;SDS011;15123;-37.794;175.246;2023-04-24T11:40:35;11.50;;;2.20;;
27722;SDS011;15123;-37.794;175.246;2023-04-24T11:43:08;10.18;;;2.25;;
27722;SDS011;15123;-37.794;175.246;2023-04-24T11:45:47;9.43;;;2.35;;
27722;SDS011;15123;-37.794;175.246;2023-04-24T11:48:19;21.17;;;5.47;;
27722;SDS011;15123;-37.794;175.246;2023-04-24T11:50:51;13.43;;;2.70;;
27722;SDS011;15123;-37.794;175.246;2023-04-24T11:53:23;7.88;;;1.70;;
27722;SDS011;15123;-37.794;175.246;2023-04-24T11:55:54;9.20;;;1.83;;
27722;SDS011;15123;-37.794;175.246;2023-04-24T11:58:26;6.82;;;1.30;;
27722;SDS011;15123;-37.794;175.246;2023-04-24T12:00:58;6.90;;;1.55;;
27722;SDS011;15123;-37.794;175.246;2023-04-24T12:03:31;6.45;;;1.30;;
27722;SDS011;15123;-37.794;175.246;2023-04-24T12:06:09;6.97;;;1.08;;
27722;SDS011;15123;-37.794;175.246;2023-04-24T12:08:44;6.38;;;1.10;;
27722;SDS011;15123;-37.794;175.246;2023-04-24T12:11:17;10.18;;;1.80;;
27722;SDS011;15123;-37.794;175.246;2023-04-24T12:16:20;6.63;;;1.45;;
27722;SDS011;15123;-37.794;175.246;2023-04-24T12:18:51;11.15;;;2.80;;
27722;SDS011;15123;-37.794;175.246;2023-04-24T12:21:23;8.45;;;1.73;;
27722;SDS011;15123;-37.794;175.246;2023-04-24T12:23:56;7.93;;;1.40;;
27722;SDS011;15123;-37.794;175.246;2023-04-24T12:26:28;10.10;;;1.23;;
27722;SDS011;15123;-37.794;175.246;2023-04-24T12:29:01;6.55;;;1.30;;
27722;SDS011;15123;-37.794;175.246;2023-04-24T12:31:35;8.57;;;1.90;;
27722;SDS011;15123;-37.794;175.246;2023-04-24T12:34:27;9.23;;;1.65;;
27722;SDS011;15123;-37.794;175.246;2023-04-24T12:37:09;8.05;;;1.83;;
27722;SDS011;15123;-37.794;175.246;2023-04-24T12:39:44;11.30;;;1.90;;
27722;SDS011;15123;-37.794;175.246;2023-04-24T12:42:43;8.60;;;1.80;;
27722;SDS011;15123;-37.794;175.246;2023-04-24T12:45:16;7.97;;;1.80;;
27722;SDS011;15123;-37.794;175.246;2023-04-24T12:47:49;10.55;;;1.67;;
27722;SDS011;15123;-37.794;175.246;2023-04-24T12:50:20;8.90;;;1.48;;
27722;SDS011;15123;-37.794;175.246;2023-04-24T12:52:52;12.57;;;2.03;;
27722;SDS011;15123;-37.794;175.246;2023-04-24T12:55:23;8.57;;;1.38;;
27722;SDS011;15123;-37.794;175.246;2023-04-24T12:57:54;6.57;;;1.50;;
27722;SDS011;15123;-37.794;175.246;2023-04-24T13:00:26;9.38;;;1.77;;
27722;SDS011;15123;-37.794;175.246;2023-04-24T13:02:57;8.80;;;1.83;;
27722;SDS011;15123;-37.794;175.246;2023-04-24T13:05:29;10.98;;;2.92;;
27722;SDS011;15123;-37.794;175.246;2023-04-24T13:08:00;8.43;;;1.70;;
27722;SDS011;15123;-37.794;175.246;2023-04-24T13:10:31;9.20;;;2.23;;
27722;SDS011;15123;-37.794;175.246;2023-04-24T13:13:03;24.20;;;7.88;;
27722;SDS011;15123;-37.794;175.246;2023-04-24T13:15:35;22.40;;;7.03;;
27722;SDS011;15123;-37.794;175.246;2023-04-24T13:18:06;18.67;;;7.75;;
27722;SDS011;15123;-37.794;175.246;2023-04-24T13:23:10;21.55;;;6.22;;
27722;SDS011;15123;-37.794;175.246;2023-04-24T13:25:41;34.67;;;13.23;;
27722;SDS011;15123;-37.794;175.246;2023-04-24T13:28:13;18.52;;;6.13;;
27722;SDS011;15123;-37.794;175.246;2023-04-24T13:30:44;19.03;;;6.30;;
27722;SDS011;15123;-37.794;175.246;2023-04-24T13:33:16;16.95;;;4.80;;
27722;SDS011;15123;-37.794;175.246;2023-04-24T13:35:48;18.25;;;5.20;;
27722;SDS011;15123;-37.794;175.246;2023-04-24T13:38:19;15.65;;;4.95;;
27722;SDS011;15123;-37.794;175.246;2023-04-24T13:40:52;16.70;;;4.90;;
27722;SDS011;15123;-37.794;175.246;2023-04-24T13:43:24;21.60;;;7.43;;
27722;SDS011;15123;-37.794;175.246;2023-04-24T13:45:56;17.30;;;6.70;;
27722;SDS011;15123;-37.794;175.246;2023-04-24T13:48:29;18.95;;;6.80;;
27722;SDS011;15123;-37.794;175.246;2023-04-24T13:51:01;18.30;;;6.82;;
27722;SDS011;15123;-37.794;175.246;2023-04-24T13:53:32;17.73;;;6.75;;
27722;SDS011;15123;-37.794;175.246;2023-04-24T13:56:08;17.48;;;6.18;;
27722;SDS011;15123;-37.794;175.246;2023-04-24T13:58:39;13.02;;;4.30;;
27722;SDS011;15123;-37.794;175.246;2023-04-24T14:01:11;10.23;;;3.92;;
27722;SDS011;15123;-37.794;175.246;2023-04-24T14:03:43;13.75;;;3.25;;
27722;SDS011;15123;-37.794;175.246;2023-04-24T14:06:15;8.63;;;2.65;;
27722;SDS011;15123;-37.794;175.246;2023-04-24T14:08:46;9.50;;;2.63;;
27722;SDS011;15123;-37.794;175.246;2023-04-24T14:11:18;11.82;;;2.35;;
27722;SDS011;15123;-37.794;175.246;2023-04-24T14:13:50;10.15;;;2.70;;
27722;SDS011;15123;-37.794;175.246;2023-04-24T14:16:21;11.70;;;2.90;;
27722;SDS011;15123;-37.794;175.246;2023-04-24T14:18:53;10.80;;;2.63;;
27722;SDS011;15123;-37.794;175.246;2023-04-24T14:21:24;10.98;;;2.45;;
27722;SDS011;15123;-37.794;175.246;2023-04-24T14:23:56;9.25;;;2.28;;
27722;SDS011;15123;-37.794;175.246;2023-04-24T14:26:27;10.18;;;2.25;;
27722;SDS011;15123;-37.794;175.246;2023-04-24T14:28:59;8.88;;;2.00;;
27722;SDS011;15123;-37.794;175.246;2023-04-24T14:31:42;9.68;;;2.70;;
27722;SDS011;15123;-37.794;175.246;2023-04-24T14:34:14;11.90;;;2.58;;
27722;SDS011;15123;-37.794;175.246;2023-04-24T14:36:45;10.95;;;2.38;;
27722;SDS011;15123;-37.794;175.246;2023-04-24T14:39:16;9.70;;;2.60;;
27722;SDS011;15123;-37.794;175.246;2023-04-24T14:41:48;8.13;;;2.45;;
27722;SDS011;15123;-37.794;175.246;2023-04-24T14:44:19;13.20;;;2.70;;
27722;SDS011;15123;-37.794;175.246;2023-04-24T14:46:50;8.43;;;2.22;;
27722;SDS011;15123;-37.794;175.246;2023-04-24T14:49:23;9.63;;;2.55;;
27722;SDS011;15123;-37.794;175.246;2023-04-24T14:51:54;9.23;;;2.50;;
27722;SDS011;15123;-37.794;175.246;2023-04-24T14:54:26;11.07;;;3.30;;
27722;SDS011;15123;-37.794;175.246;2023-04-24T14:56:57;12.10;;;3.00;;
27722;SDS011;15123;-37.794;175.246;2023-04-24T14:59:29;9.77;;;2.63;;
27722;SDS011;15123;-37.794;175.246;2023-04-24T15:02:01;10.20;;;3.00;;
27722;SDS011;15123;-37.794;175.246;2023-04-24T15:04:43;14.02;;;3.30;;
27722;SDS011;15123;-37.794;175.246;2023-04-24T15:07:15;10.93;;;2.78;;
27722;SDS011;15123;-37.794;175.246;2023-04-24T15:09:46;11.63;;;3.03;;
27722;SDS011;15123;-37.794;175.246;2023-04-24T15:14:50;10.30;;;3.00;;
27722;SDS011;15123;-37.794;175.246;2023-04-24T15:17:23;10.95;;;3.05;;
27722;SDS011;15123;-37.794;175.246;2023-04-24T15:19:54;10.43;;;2.85;;
27722;SDS011;15123;-37.794;175.246;2023-04-24T15:22:26;11.07;;;3.00;;
27722;SDS011;15123;-37.794;175.246;2023-04-24T15:24:57;10.88;;;3.15;;
27722;SDS011;15123;-37.794;175.246;2023-04-24T15:27:39;10.25;;;3.03;;
27722;SDS011;15123;-37.794;175.246;2023-04-24T15:30:12;10.77;;;3.13;;
27722;SDS011;15123;-37.794;175.246;2023-04-24T15:32:44;10.27;;;2.55;;
27722;SDS011;15123;-37.794;175.246;2023-04-24T15:35:16;11.98;;;3.17;;
27722;SDS011;15123;-37.794;175.246;2023-04-24T15:37:47;14.50;;;4.43;;